Time;durP1;ratioP1;P1;durP2;ratioP2;P2;SDS_P1;SDS_P2;PMS_P1;PMS_P2;Temp;Humidity;BMP_temperature;BMP_pressure;BME280_temperature;BME280_humidity;BME280_pressure;Samples;Min_cycle;Max_cycle;Signal;HPM_P1;HPM_P2
2023/01/08 00:02:19;;;;;;;1.20;1.00;;;13.00;99.90;;;;;;4900183;29;20183;-70
2023/01/08 00:04:44;;;;;;;1.90;1.10;;;12.90;99.90;;;;;;4899496;29;20205;-71
2023/01/08 00:07:10;;;;;;;0.90;0.85;;;13.10;99.90;;;;;;4901647;29;20179;-71
2023/01/08 00:09:35;;;;;;;1.10;1.00;;;13.00;99.90;;;;;;4908913;29;20190;-71
2023/01/08 00:12:06;;;;;;;1.17;1.08;;;13.00;99.90;;;;;;4899675;29;20332;-72
2023/01/08 00:14:33;;;;;;;1.20;1.10;;;13.00;99.90;;;;;;4892126;29;20190;-71
2023/01/08 00:17:01;;;;;;;1.63;1.02;;;13.00;99.90;;;;;;4903855;29;20242;-73
2023/01/08 00:19:30;;;;;;;1.30;1.00;;;13.00;99.90;;;;;;4900030;29;20197;-71
2023/01/08 00:21:58;;;;;;;1.20;1.02;;;13.10;99.90;;;;;;4902934;29;20187;-72
2023/01/08 00:24:28;;;;;;;1.15;0.93;;;13.00;99.90;;;;;;4902660;29;20189;-71
2023/01/08 00:26:53;;;;;;;1.10;0.90;;;12.90;99.90;;;;;;4896422;29;20199;-72
2023/01/08 00:29:21;;;;;;;1.45;0.98;;;13.00;99.90;;;;;;4904725;29;20258;-71
2023/01/08 00:31:47;;;;;;;0.85;0.80;;;13.00;99.90;;;;;;4891857;29;20187;-71
2023/01/08 00:34:12;;;;;;;1.27;1.00;;;12.90;99.90;;;;;;4898541;29;20199;-71
2023/01/08 00:36:38;;;;;;;2.15;1.10;;;13.00;99.90;;;;;;4899207;29;20187;-71
2023/01/08 00:39:04;;;;;;;1.10;1.00;;;13.00;99.90;;;;;;4899183;29;20222;-72
2023/01/08 00:41:31;;;;;;;1.55;1.20;;;13.00;99.90;;;;;;4896026;29;20265;-71
2023/01/08 00:43:57;;;;;;;1.25;1.00;;;13.00;99.90;;;;;;4924995;29;20191;-71
2023/01/08 00:46:25;;;;;;;1.52;1.20;;;13.00;99.90;;;;;;4899576;29;20215;-71
2023/01/08 00:48:51;;;;;;;1.50;1.10;;;13.00;99.90;;;;;;4890945;29;20183;-72
2023/01/08 00:51:16;;;;;;;1.17;0.90;;;12.90;99.90;;;;;;4913121;29;20187;-71
2023/01/08 00:53:42;;;;;;;1.58;1.27;;;13.00;99.90;;;;;;4899166;29;20210;-71
2023/01/08 00:56:10;;;;;;;1.67;1.20;;;13.00;99.90;;;;;;4899040;29;20186;-71
2023/01/08 00:58:38;;;;;;;1.40;0.90;;;13.00;99.90;;;;;;4899312;29;20222;-71
2023/01/08 01:01:13;;;;;;;1.30;1.05;;;13.00;99.90;;;;;;4902762;29;20240;-72
2023/01/08 01:03:39;;;;;;;1.15;0.90;;;13.00;99.90;;;;;;4897215;29;20194;-71
2023/01/08 01:06:06;;;;;;;2.72;1.20;;;13.00;99.90;;;;;;4895961;29;20197;-71
2023/01/08 01:08:33;;;;;;;1.60;1.10;;;13.00;99.90;;;;;;4898430;29;20187;-71
2023/01/08 01:10:59;;;;;;;1.55;1.20;;;13.00;99.90;;;;;;4907100;29;20274;-71
2023/01/08 01:13:27;;;;;;;2.10;1.20;;;13.00;99.90;;;;;;4898815;29;20218;-71
2023/01/08 01:16:00;;;;;;;1.80;1.10;;;13.00;99.90;;;;;;4892859;29;20199;-71
2023/01/08 01:18:26;;;;;;;1.40;1.10;;;13.00;99.90;;;;;;4884889;29;20199;-71
2023/01/08 01:20:54;;;;;;;2.25;1.23;;;13.00;99.90;;;;;;4905971;29;20213;-71
2023/01/08 01:23:20;;;;;;;1.10;0.90;;;13.00;99.90;;;;;;4902701;29;20338;-71
2023/01/08 01:25:48;;;;;;;2.05;1.20;;;13.00;99.90;;;;;;4898455;29;20281;-71
2023/01/08 01:28:15;;;;;;;1.42;1.10;;;13.00;99.90;;;;;;4895933;29;20210;-71
2023/01/08 01:30:42;;;;;;;2.25;1.00;;;13.10;99.90;;;;;;4896125;29;20265;-70
2023/01/08 01:33:08;;;;;;;1.73;1.10;;;13.00;99.90;;;;;;4898709;29;20327;-71
2023/01/08 01:35:33;;;;;;;1.42;1.20;;;12.90;99.90;;;;;;4897506;29;20261;-71
2023/01/08 01:37:59;;;;;;;1.80;1.00;;;13.00;99.90;;;;;;4898230;29;20194;-71
2023/01/08 01:40:25;;;;;;;1.45;1.10;;;13.10;99.90;;;;;;4902225;29;20171;-71
2023/01/08 01:42:53;;;;;;;1.13;1.00;;;13.00;99.90;;;;;;4898109;29;20281;-71
2023/01/08 01:45:30;;;;;;;1.42;1.27;;;13.00;99.90;;;;;;4892964;29;20297;-71
2023/01/08 01:48:01;;;;;;;1.95;1.20;;;13.10;99.90;;;;;;4904499;29;20179;-71
2023/01/08 01:50:42;;;;;;;2.30;1.20;;;13.10;99.90;;;;;;4891556;29;20266;-71
2023/01/08 01:53:20;;;;;;;1.65;1.23;;;13.10;99.90;;;;;;4908827;29;20190;-71
2023/01/08 01:55:49;;;;;;;1.20;1.10;;;13.10;99.90;;;;;;4911254;29;20222;-70
2023/01/08 01:58:25;;;;;;;1.58;1.17;;;13.10;99.90;;;;;;4897755;29;20195;-71
2023/01/08 02:00:52;;;;;;;1.10;0.90;;;13.10;99.90;;;;;;4896104;29;20233;-71
2023/01/08 02:03:28;;;;;;;1.27;1.02;;;13.10;99.90;;;;;;4896637;29;20226;-70
2023/01/08 02:06:08;;;;;;;1.95;1.20;;;13.10;99.90;;;;;;4897393;29;20262;-70
2023/01/08 02:08:37;;;;;;;4.20;1.08;;;13.10;99.90;;;;;;4913476;29;20262;-69
2023/01/08 02:11:08;;;;;;;1.20;1.10;;;13.10;99.90;;;;;;4895160;29;20290;-70
2023/01/08 02:13:44;;;;;;;1.10;0.90;;;13.10;99.90;;;;;;4895257;29;20195;-70
2023/01/08 02:16:36;;;;;;;1.83;1.17;;;13.10;99.90;;;;;;4902145;29;20174;-70
2023/01/08 02:19:16;;;;;;;0.98;0.88;;;13.10;99.90;;;;;;4908324;29;20283;-69
2023/01/08 02:22:02;;;;;;;1.15;0.85;;;13.10;99.90;;;;;;4911249;29;20185;-70
2023/01/08 02:24:49;;;;;;;1.33;1.08;;;13.10;99.90;;;;;;4894314;29;20246;-70
2023/01/08 02:27:16;;;;;;;2.58;1.10;;;13.10;99.90;;;;;;4911070;29;20190;-71
2023/01/08 02:29:44;;;;;;;1.95;1.00;;;13.10;99.90;;;;;;4901775;29;20194;-71
2023/01/08 02:32:15;;;;;;;1.30;0.95;;;13.10;99.90;;;;;;4897390;29;20221;-71
2023/01/08 02:34:43;;;;;;;1.73;1.00;;;13.10;99.90;;;;;;4901728;29;20229;-71
2023/01/08 02:37:09;;;;;;;1.08;0.80;;;13.10;99.90;;;;;;4897044;29;20214;-71
2023/01/08 02:40:02;;;;;;;1.10;1.00;;;13.10;99.90;;;;;;4897029;29;20183;-71
2023/01/08 02:42:54;;;;;;;1.13;1.00;;;13.10;99.90;;;;;;4907972;29;20194;-71
2023/01/08 02:45:41;;;;;;;1.60;1.08;;;13.10;99.90;;;;;;4904934;29;20211;-71
2023/01/08 02:48:27;;;;;;;0.75;0.70;;;13.10;99.90;;;;;;4918820;29;20263;-71
2023/01/08 02:50:59;;;;;;;1.10;0.90;;;13.10;99.90;;;;;;4901789;29;20182;-71
2023/01/08 02:53:38;;;;;;;1.48;1.00;;;13.10;99.90;;;;;;4901126;29;20238;-70
2023/01/08 02:56:14;;;;;;;2.25;1.10;;;13.10;99.90;;;;;;4897355;29;20262;-70
2023/01/08 02:58:43;;;;;;;1.17;0.98;;;13.20;99.90;;;;;;4898738;29;20202;-69
2023/01/08 03:01:12;;;;;;;0.93;0.82;;;13.10;99.90;;;;;;4900295;29;20210;-70
2023/01/08 03:03:42;;;;;;;1.10;0.95;;;13.10;99.90;;;;;;4909120;29;20194;-70
2023/01/08 03:06:11;;;;;;;2.65;1.00;;;13.10;99.90;;;;;;4900130;29;20285;-70
2023/01/08 03:08:45;;;;;;;1.55;1.10;;;13.10;99.90;;;;;;4897743;29;20258;-71
2023/01/08 03:11:18;;;;;;;1.10;0.90;;;13.10;99.90;;;;;;4901013;29;20179;-70
2023/01/08 03:13:55;;;;;;;1.80;0.85;;;13.00;99.90;;;;;;4900716;29;20225;-70
2023/01/08 03:16:28;;;;;;;0.80;0.80;;;13.00;99.90;;;;;;4896194;29;21833;-71
2023/01/08 03:19:11;;;;;;;1.17;0.93;;;13.00;99.90;;;;;;4916189;29;20206;-70
2023/01/08 03:21:38;;;;;;;1.15;0.77;;;13.00;99.90;;;;;;4900476;29;20183;-70
2023/01/08 03:24:13;;;;;;;1.30;1.00;;;13.00;99.90;;;;;;4900799;29;20249;-70
2023/01/08 03:26:44;;;;;;;1.10;0.80;;;13.00;99.90;;;;;;4902547;29;20206;-72
2023/01/08 03:29:16;;;;;;;0.70;0.70;;;12.90;99.90;;;;;;4888925;29;20193;-72
2023/01/08 03:31:44;;;;;;;0.93;0.80;;;13.00;99.90;;;;;;4896633;29;20182;-71
2023/01/08 03:34:12;;;;;;;1.17;0.80;;;13.00;99.90;;;;;;4902303;29;20374;-72
2023/01/08 03:36:40;;;;;;;0.73;0.70;;;13.00;99.90;;;;;;4898736;29;20190;-72
2023/01/08 03:39:18;;;;;;;0.75;0.70;;;13.00;99.90;;;;;;4900652;29;20211;-72
2023/01/08 03:41:49;;;;;;;1.00;0.60;;;13.00;99.90;;;;;;4910391;29;20206;-69
2023/01/08 03:44:15;;;;;;;0.95;0.60;;;13.00;99.90;;;;;;4900519;29;20182;-69
2023/01/08 03:46:49;;;;;;;1.83;0.70;;;13.00;99.90;;;;;;4903114;29;20245;-70
2023/01/08 03:49:15;;;;;;;0.75;0.50;;;13.00;99.90;;;;;;4900727;29;20206;-70
2023/01/08 03:51:48;;;;;;;1.17;0.63;;;13.10;99.90;;;;;;4893780;29;20251;-72
2023/01/08 03:54:20;;;;;;;0.93;0.60;;;13.10;99.90;;;;;;4912731;29;20246;-72
2023/01/08 03:56:48;;;;;;;0.55;0.50;;;13.00;99.90;;;;;;4899970;29;20369;-72
2023/01/08 03:59:17;;;;;;;0.70;0.57;;;13.00;99.90;;;;;;4900694;29;20198;-70
2023/01/08 04:01:43;;;;;;;0.60;0.50;;;13.00;99.90;;;;;;4896593;29;20222;-70
2023/01/08 04:04:12;;;;;;;0.60;0.50;;;13.00;99.90;;;;;;4910902;29;20222;-70
2023/01/08 04:06:40;;;;;;;0.68;0.50;;;13.10;99.90;;;;;;4899987;29;20194;-70
2023/01/08 04:09:10;;;;;;;0.45;0.45;;;13.00;99.90;;;;;;4903886;29;20189;-69
2023/01/08 04:11:36;;;;;;;0.68;0.45;;;13.00;99.90;;;;;;4900603;29;20441;-69
2023/01/08 04:14:02;;;;;;;0.47;0.45;;;13.00;99.90;;;;;;4904846;29;20237;-70
2023/01/08 04:16:27;;;;;;;0.45;0.38;;;13.00;99.90;;;;;;4898969;29;20215;-70
2023/01/08 04:18:55;;;;;;;0.50;0.40;;;13.00;99.90;;;;;;4896831;29;20202;-71
2023/01/08 04:21:21;;;;;;;0.55;0.50;;;13.10;99.90;;;;;;4893633;29;20179;-69
2023/01/08 04:23:49;;;;;;;0.52;0.50;;;13.00;99.90;;;;;;4902472;29;20210;-70
2023/01/08 04:26:14;;;;;;;0.90;0.80;;;13.00;99.90;;;;;;4897388;29;20174;-70
2023/01/08 04:28:42;;;;;;;0.50;0.50;;;13.00;99.90;;;;;;4899904;29;20199;-70
2023/01/08 04:31:10;;;;;;;0.55;0.50;;;12.90;99.90;;;;;;4890898;29;20202;-70
2023/01/08 04:33:36;;;;;;;0.52;0.40;;;13.00;99.90;;;;;;4901109;29;20191;-71
2023/01/08 04:36:05;;;;;;;0.65;0.30;;;13.00;99.90;;;;;;4899719;29;20197;-70
2023/01/08 04:38:35;;;;;;;0.52;0.30;;;12.90;99.90;;;;;;4894006;29;20233;-70
2023/01/08 04:41:01;;;;;;;0.30;0.30;;;12.90;99.90;;;;;;4896406;29;20202;-71
2023/01/08 04:43:31;;;;;;;0.30;0.30;;;12.90;99.90;;;;;;4897124;29;20179;-72
2023/01/08 04:46:00;;;;;;;0.40;0.40;;;12.90;99.90;;;;;;4904028;29;20188;-71
2023/01/08 04:48:29;;;;;;;0.43;0.30;;;12.90;99.90;;;;;;4912288;29;20183;-71
2023/01/08 04:51:00;;;;;;;0.30;0.30;;;12.90;99.90;;;;;;4886493;29;20268;-71
2023/01/08 04:53:30;;;;;;;0.30;0.30;;;12.90;99.90;;;;;;4898333;29;20243;-72
2023/01/08 04:56:01;;;;;;;0.40;0.40;;;12.80;99.90;;;;;;4894483;29;20197;-71
2023/01/08 04:58:26;;;;;;;0.43;0.43;;;12.80;99.90;;;;;;4914548;29;20206;-70
2023/01/08 05:00:55;;;;;;;0.35;0.30;;;12.90;99.90;;;;;;4898082;29;20194;-71
2023/01/08 05:03:22;;;;;;;0.40;0.40;;;12.80;99.90;;;;;;4918827;29;20237;-72
2023/01/08 05:05:48;;;;;;;0.52;0.50;;;12.80;99.90;;;;;;4908292;29;20179;-71
2023/01/08 05:08:14;;;;;;;0.50;0.30;;;12.80;99.90;;;;;;4886909;29;20198;-72
2023/01/08 05:10:44;;;;;;;0.40;0.40;;;12.80;99.90;;;;;;4910739;29;20209;-70
2023/01/08 05:13:11;;;;;;;0.38;0.35;;;12.80;99.90;;;;;;4899379;29;20196;-70
2023/01/08 05:15:40;;;;;;;0.38;0.30;;;12.80;99.90;;;;;;4898209;29;20193;-71
2023/01/08 05:18:05;;;;;;;0.35;0.30;;;12.80;99.90;;;;;;4896982;29;20207;-71
2023/01/08 05:20:32;;;;;;;0.75;0.30;;;12.80;99.90;;;;;;4891815;29;20179;-71
2023/01/08 05:22:57;;;;;;;0.30;0.30;;;12.70;99.90;;;;;;4899303;29;20186;-71
2023/01/08 05:25:26;;;;;;;0.35;0.30;;;12.80;99.90;;;;;;4891732;29;20175;-72
2023/01/08 05:27:52;;;;;;;0.50;0.40;;;12.70;99.90;;;;;;4898943;29;20178;-71
2023/01/08 05:30:20;;;;;;;0.40;0.38;;;12.70;99.90;;;;;;4886576;29;20202;-70
2023/01/08 05:32:46;;;;;;;0.30;0.30;;;12.70;99.90;;;;;;4898879;29;20266;-72
2023/01/08 05:35:13;;;;;;;0.68;0.45;;;12.60;99.90;;;;;;4902712;29;20202;-71
2023/01/08 05:37:41;;;;;;;0.30;0.30;;;12.70;99.90;;;;;;4902579;29;20229;-70
2023/01/08 05:40:07;;;;;;;0.73;0.50;;;12.70;99.90;;;;;;4898297;29;20270;-70
2023/01/08 05:42:36;;;;;;;0.57;0.38;;;12.60;99.90;;;;;;4890925;29;20179;-70
2023/01/08 05:45:08;;;;;;;0.73;0.32;;;12.60;99.90;;;;;;4887841;29;20202;-70
2023/01/08 05:47:35;;;;;;;0.38;0.38;;;12.60;99.90;;;;;;4894578;29;20187;-70
2023/01/08 05:50:03;;;;;;;0.32;0.32;;;12.60;99.90;;;;;;4905376;29;20298;-71
2023/01/08 05:52:29;;;;;;;0.22;0.22;;;12.60;99.90;;;;;;4899286;29;20254;-71
2023/01/08 05:54:58;;;;;;;0.57;0.43;;;12.60;99.90;;;;;;4898073;29;20214;-71
2023/01/08 05:57:26;;;;;;;0.93;0.30;;;12.60;99.90;;;;;;4899193;29;20202;-70
2023/01/08 05:59:55;;;;;;;0.52;0.30;;;12.60;99.90;;;;;;4898136;29;20206;-71
2023/01/08 06:02:21;;;;;;;0.40;0.40;;;12.50;99.90;;;;;;4896646;29;20193;-71
2023/01/08 06:04:47;;;;;;;0.65;0.50;;;12.60;99.90;;;;;;4898875;29;20291;-70
2023/01/08 06:07:14;;;;;;;0.40;0.40;;;12.60;99.90;;;;;;4895455;29;20175;-70
2023/01/08 06:09:40;;;;;;;0.55;0.52;;;12.50;99.90;;;;;;4906443;29;20219;-71
2023/01/08 06:12:08;;;;;;;0.40;0.40;;;12.60;99.90;;;;;;4905669;29;20241;-70
2023/01/08 06:14:38;;;;;;;0.40;0.40;;;12.60;99.90;;;;;;4895745;29;20187;-70
2023/01/08 06:17:06;;;;;;;0.50;0.38;;;12.60;99.90;;;;;;4899824;29;20184;-70
2023/01/08 06:19:32;;;;;;;0.30;0.30;;;12.60;99.90;;;;;;4882512;29;20187;-70
2023/01/08 06:21:58;;;;;;;0.30;0.28;;;12.50;99.90;;;;;;4892713;29;20190;-70
2023/01/08 06:24:23;;;;;;;0.57;0.40;;;12.60;99.90;;;;;;4892552;29;20265;-71
2023/01/08 06:26:51;;;;;;;0.50;0.30;;;12.60;99.90;;;;;;4896790;29;20264;-71
2023/01/08 06:29:19;;;;;;;0.30;0.30;;;12.70;99.90;;;;;;4897298;29;20210;-71
2023/01/08 06:31:45;;;;;;;0.50;0.50;;;12.60;99.90;;;;;;4900049;29;20182;-71
2023/01/08 06:34:13;;;;;;;0.82;0.52;;;12.60;99.90;;;;;;4898909;29;20186;-70
2023/01/08 06:36:41;;;;;;;0.50;0.45;;;12.60;99.90;;;;;;4895514;29;20207;-71
2023/01/08 06:39:07;;;;;;;0.40;0.40;;;12.60;99.90;;;;;;4904635;29;20218;-73
2023/01/08 06:41:33;;;;;;;0.77;0.50;;;12.70;99.90;;;;;;4903419;29;20206;-73
2023/01/08 06:43:58;;;;;;;0.63;0.47;;;12.60;99.90;;;;;;4881541;29;20240;-73
2023/01/08 06:46:24;;;;;;;0.50;0.40;;;12.60;99.90;;;;;;4901495;29;20181;-73
2023/01/08 06:48:51;;;;;;;0.40;0.40;;;12.60;99.90;;;;;;4905012;29;20197;-71
2023/01/08 06:51:19;;;;;;;0.50;0.40;;;12.60;99.90;;;;;;4894605;29;20203;-72
2023/01/08 06:53:47;;;;;;;0.40;0.40;;;12.60;99.90;;;;;;4897462;29;20186;-73
2023/01/08 06:56:15;;;;;;;0.50;0.40;;;12.60;99.90;;;;;;4904828;29;20194;-73
2023/01/08 06:58:40;;;;;;;0.35;0.35;;;12.60;99.90;;;;;;4896339;29;20262;-72
2023/01/08 07:01:10;;;;;;;0.60;0.30;;;12.50;99.90;;;;;;4897370;29;20183;-72
2023/01/08 07:03:37;;;;;;;0.40;0.40;;;12.50;99.90;;;;;;4902337;29;20218;-73
2023/01/08 07:06:06;;;;;;;0.63;0.45;;;12.50;99.90;;;;;;4887857;29;20207;-73
2023/01/08 07:08:32;;;;;;;0.50;0.50;;;12.40;99.90;;;;;;4896276;29;20179;-73
2023/01/08 07:11:02;;;;;;;0.40;0.38;;;12.40;99.90;;;;;;4896630;29;20258;-73
2023/01/08 07:13:28;;;;;;;0.95;0.50;;;12.40;99.90;;;;;;4894927;29;20178;-73
2023/01/08 07:15:54;;;;;;;1.55;0.60;;;12.30;99.90;;;;;;4891593;29;20220;-74
2023/01/08 07:18:20;;;;;;;0.50;0.40;;;12.40;99.90;;;;;;4883459;29;20211;-70
2023/01/08 07:20:51;;;;;;;0.93;0.63;;;12.30;99.90;;;;;;4898351;29;20179;-72
2023/01/08 07:23:17;;;;;;;1.30;0.70;;;12.30;99.90;;;;;;4897132;29;20461;-71
2023/01/08 07:25:46;;;;;;;0.82;0.73;;;12.30;99.90;;;;;;4895565;29;20182;-73
2023/01/08 07:28:12;;;;;;;1.50;0.70;;;12.30;99.90;;;;;;4897569;29;20191;-73
2023/01/08 07:30:40;;;;;;;0.60;0.52;;;12.30;99.90;;;;;;4902433;29;20269;-72
2023/01/08 07:33:08;;;;;;;0.50;0.50;;;12.30;99.90;;;;;;4895482;29;20179;-73
2023/01/08 07:35:37;;;;;;;0.50;0.45;;;12.20;99.90;;;;;;4886294;29;20194;-72
2023/01/08 07:38:03;;;;;;;0.50;0.50;;;12.30;99.90;;;;;;4893503;29;20203;-74
2023/01/08 07:40:30;;;;;;;1.38;0.50;;;12.30;99.90;;;;;;4910309;29;20345;-73
2023/01/08 07:42:59;;;;;;;1.35;1.00;;;12.30;99.90;;;;;;4894520;29;20176;-73
2023/01/08 07:45:26;;;;;;;1.00;0.85;;;12.30;99.90;;;;;;4896142;29;20182;-72
2023/01/08 07:47:52;;;;;;;0.80;0.60;;;12.30;99.90;;;;;;4901144;29;20193;-73
2023/01/08 07:50:22;;;;;;;0.50;0.50;;;12.20;99.90;;;;;;4897179;29;20290;-73
2023/01/08 07:52:48;;;;;;;0.90;0.63;;;12.30;99.90;;;;;;4895972;29;20218;-73
2023/01/08 07:55:18;;;;;;;1.00;0.60;;;12.30;99.90;;;;;;4897278;29;20198;-72
2023/01/08 07:57:44;;;;;;;1.30;0.55;;;12.20;99.90;;;;;;4900421;29;20206;-73
2023/01/08 08:00:10;;;;;;;0.52;0.52;;;12.30;99.90;;;;;;4899896;29;20254;-73
2023/01/08 08:02:36;;;;;;;0.50;0.32;;;12.30;99.90;;;;;;4902349;29;20221;-73
2023/01/08 08:05:03;;;;;;;0.68;0.43;;;12.20;99.90;;;;;;4907548;29;20179;-73
2023/01/08 08:07:30;;;;;;;1.20;0.52;;;12.20;99.90;;;;;;4893941;29;20182;-71
2023/01/08 08:09:56;;;;;;;2.08;0.95;;;12.30;99.90;;;;;;4900498;29;20186;-74
2023/01/08 08:12:21;;;;;;;1.00;0.80;;;12.20;99.90;;;;;;4896747;29;20190;-74
2023/01/08 08:14:47;;;;;;;1.15;0.70;;;12.20;99.90;;;;;;4898465;29;20203;-73
2023/01/08 08:17:12;;;;;;;0.85;0.50;;;12.20;99.90;;;;;;4897150;29;20298;-74
2023/01/08 08:19:42;;;;;;;0.90;0.47;;;12.20;99.90;;;;;;4915590;29;20175;-73
2023/01/08 08:22:08;;;;;;;0.82;0.55;;;12.20;99.90;;;;;;4901126;29;20254;-73
2023/01/08 08:24:36;;;;;;;1.27;0.50;;;12.20;99.90;;;;;;4900510;29;20178;-73
2023/01/08 08:27:05;;;;;;;0.73;0.50;;;12.20;99.90;;;;;;4904343;29;20202;-72
2023/01/08 08:29:30;;;;;;;0.60;0.40;;;12.20;99.90;;;;;;4912035;29;20190;-73
2023/01/08 08:31:58;;;;;;;1.52;0.80;;;12.20;99.90;;;;;;4902669;29;20201;-73
2023/01/08 08:34:24;;;;;;;0.75;0.55;;;12.20;99.90;;;;;;4914948;29;20178;-73
2023/01/08 08:36:49;;;;;;;1.05;0.70;;;12.20;99.90;;;;;;4907228;29;20227;-73
2023/01/08 08:39:15;;;;;;;0.50;0.50;;;12.20;99.90;;;;;;4894803;29;20226;-73
2023/01/08 08:41:41;;;;;;;0.60;0.50;;;12.20;99.90;;;;;;4892610;29;20194;-73
2023/01/08 08:44:08;;;;;;;0.90;0.57;;;12.20;99.90;;;;;;4885910;29;20210;-72
2023/01/08 08:46:36;;;;;;;1.30;0.52;;;12.20;99.90;;;;;;4898805;29;20202;-73
2023/01/08 08:49:01;;;;;;;0.90;0.60;;;12.30;99.90;;;;;;4897943;29;20191;-72
2023/01/08 08:51:29;;;;;;;1.50;0.63;;;12.20;99.90;;;;;;4893881;29;20253;-73
2023/01/08 08:53:55;;;;;;;1.05;0.57;;;12.30;99.90;;;;;;4899393;29;20179;-73
2023/01/08 08:56:20;;;;;;;2.05;0.60;;;12.30;99.90;;;;;;4898570;29;20197;-75
2023/01/08 08:58:49;;;;;;;1.20;0.70;;;12.20;99.90;;;;;;4886352;29;20250;-74
2023/01/08 09:01:17;;;;;;;0.90;0.63;;;12.30;99.90;;;;;;4890223;29;20179;-72
2023/01/08 09:03:43;;;;;;;0.45;0.40;;;12.20;99.90;;;;;;4896855;29;20195;-72
2023/01/08 09:06:17;;;;;;;1.20;0.70;;;12.30;99.90;;;;;;4899461;29;20191;-71
2023/01/08 09:08:43;;;;;;;0.70;0.63;;;12.30;99.90;;;;;;4899192;29;20190;-72
2023/01/08 09:11:11;;;;;;;1.13;0.75;;;12.30;99.90;;;;;;4898929;29;20218;-73
2023/01/08 09:13:37;;;;;;;2.25;0.60;;;12.30;99.90;;;;;;4900351;29;20273;-74
2023/01/08 09:16:02;;;;;;;1.27;0.60;;;12.30;99.90;;;;;;4898744;29;20210;-70
2023/01/08 09:18:30;;;;;;;0.73;0.60;;;12.40;99.90;;;;;;4896372;29;20228;-70
2023/01/08 09:20:58;;;;;;;1.55;0.60;;;12.60;99.90;;;;;;4897756;29;20183;-69
2023/01/08 09:23:23;;;;;;;1.42;0.90;;;12.70;99.90;;;;;;4899332;29;20182;-71
2023/01/08 09:25:49;;;;;;;1.75;0.70;;;12.90;99.90;;;;;;4895582;29;20193;-71
2023/01/08 09:28:17;;;;;;;1.40;0.90;;;13.10;99.90;;;;;;4891791;29;20182;-71
2023/01/08 09:30:42;;;;;;;1.40;0.90;;;13.30;99.90;;;;;;4897082;29;20183;-72
2023/01/08 09:33:09;;;;;;;2.35;0.85;;;13.50;99.90;;;;;;4908397;29;20186;-72
2023/01/08 09:35:34;;;;;;;2.60;1.20;;;13.60;99.90;;;;;;4905653;29;20194;-72
2023/01/08 09:38:03;;;;;;;2.88;1.00;;;13.70;99.90;;;;;;4909227;29;20214;-71
2023/01/08 09:40:41;;;;;;;1.75;0.60;;;13.70;99.90;;;;;;4902228;29;20174;-71
2023/01/08 09:43:13;;;;;;;1.15;0.70;;;13.70;99.90;;;;;;4893955;29;20170;-71
2023/01/08 09:45:41;;;;;;;1.42;0.73;;;13.70;99.90;;;;;;4898162;29;20183;-71
2023/01/08 09:48:13;;;;;;;1.58;0.70;;;13.70;99.90;;;;;;4896787;29;20194;-72
2023/01/08 09:50:41;;;;;;;1.67;0.60;;;13.70;99.90;;;;;;4898531;29;20356;-72
2023/01/08 09:53:13;;;;;;;1.45;0.65;;;13.70;99.90;;;;;;4908152;29;20249;-72
2023/01/08 09:55:40;;;;;;;0.80;0.60;;;13.60;99.90;;;;;;4898652;29;20182;-72
2023/01/08 09:58:22;;;;;;;1.38;0.70;;;13.40;99.90;;;;;;4896013;29;20254;-72
2023/01/08 10:00:48;;;;;;;1.58;0.70;;;13.40;99.90;;;;;;4900035;29;20178;-71
2023/01/08 10:03:14;;;;;;;0.77;0.57;;;13.30;99.90;;;;;;4891707;29;20194;-72
2023/01/08 10:05:42;;;;;;;0.98;0.60;;;13.20;99.90;;;;;;4908242;29;20210;-74
2023/01/08 10:08:16;;;;;;;1.92;0.90;;;13.10;99.90;;;;;;4897257;29;20197;-72
2023/01/08 10:10:43;;;;;;;1.35;0.80;;;13.00;99.90;;;;;;4888367;29;20222;-72
2023/01/08 10:13:11;;;;;;;2.03;0.70;;;13.00;99.90;;;;;;4895492;29;20184;-71
2023/01/08 10:15:41;;;;;;;1.85;0.70;;;12.90;99.90;;;;;;4894042;29;20229;-78
2023/01/08 10:18:12;;;;;;;1.83;0.63;;;12.90;99.90;;;;;;4901144;29;20210;-72
2023/01/08 10:20:38;;;;;;;1.48;0.50;;;12.90;99.90;;;;;;4892706;29;20182;-72
2023/01/08 10:23:12;;;;;;;0.77;0.60;;;12.80;99.90;;;;;;4898722;29;20189;-72
2023/01/08 10:25:58;;;;;;;0.80;0.40;;;12.80;99.90;;;;;;4891722;29;20210;-72
2023/01/08 10:28:30;;;;;;;1.38;0.60;;;12.70;99.90;;;;;;4907387;29;20186;-71
2023/01/08 10:31:14;;;;;;;1.23;0.60;;;12.70;99.90;;;;;;4906188;29;20216;-73
2023/01/08 10:33:47;;;;;;;1.92;0.60;;;12.70;99.90;;;;;;4892710;29;20258;-74
2023/01/08 10:36:26;;;;;;;0.90;0.60;;;12.70;99.90;;;;;;4892069;29;20190;-71
2023/01/08 10:38:58;;;;;;;0.80;0.52;;;12.70;99.90;;;;;;4886623;29;20310;-73
2023/01/08 10:41:23;;;;;;;0.60;0.50;;;12.80;99.90;;;;;;4905267;29;20171;-74
2023/01/08 10:43:57;;;;;;;0.90;0.50;;;12.90;99.90;;;;;;4906886;29;20199;-72
2023/01/08 10:46:40;;;;;;;1.48;1.08;;;13.00;99.90;;;;;;4892650;29;20261;-74
2023/01/08 10:49:23;;;;;;;1.00;0.60;;;13.20;99.90;;;;;;4894669;29;20182;-73
2023/01/08 10:51:51;;;;;;;1.42;0.70;;;13.40;99.90;;;;;;4909614;29;20280;-72
2023/01/08 10:54:39;;;;;;;0.77;0.55;;;13.50;99.90;;;;;;4887698;29;20182;-74
2023/01/08 10:57:29;;;;;;;1.13;0.80;;;13.60;99.90;;;;;;4907958;29;20356;-74
2023/01/08 10:59:55;;;;;;;1.17;0.80;;;13.80;99.90;;;;;;4896710;29;20187;-73
2023/01/08 11:02:24;;;;;;;1.15;0.80;;;13.80;99.90;;;;;;4895827;29;20234;-73
2023/01/08 11:04:51;;;;;;;1.65;1.00;;;13.80;99.90;;;;;;4892339;29;20298;-73
2023/01/08 11:07:20;;;;;;;2.97;1.08;;;13.80;99.90;;;;;;4899365;29;20179;-72
2023/01/08 11:09:48;;;;;;;0.90;0.70;;;13.80;99.90;;;;;;4893008;29;20210;-73
2023/01/08 11:12:35;;;;;;;2.05;1.10;;;13.90;99.90;;;;;;4893937;29;20243;-72
2023/01/08 11:15:03;;;;;;;0.82;0.70;;;13.90;99.90;;;;;;4891895;29;20281;-72
2023/01/08 11:17:31;;;;;;;1.25;0.70;;;14.00;99.90;;;;;;4901743;29;20205;-71
2023/01/08 11:20:18;;;;;;;1.23;0.70;;;14.00;99.90;;;;;;4897559;29;20183;-72
2023/01/08 11:22:44;;;;;;;1.17;0.73;;;14.30;99.90;;;;;;4896825;29;20524;-73
2023/01/08 11:25:15;;;;;;;1.52;0.70;;;14.50;99.90;;;;;;4900776;29;20195;-70
2023/01/08 11:27:44;;;;;;;0.93;0.50;;;14.70;99.90;;;;;;4898390;29;20187;-72
2023/01/08 11:30:22;;;;;;;1.15;0.60;;;14.70;99.90;;;;;;4918643;29;20210;-72
2023/01/08 11:33:05;;;;;;;1.45;0.55;;;14.80;99.90;;;;;;4900409;29;20187;-72
2023/01/08 11:35:39;;;;;;;0.93;0.50;;;14.70;99.90;;;;;;4899060;29;20206;-72
2023/01/08 11:38:07;;;;;;;0.70;0.40;;;14.60;99.90;;;;;;4900340;29;20198;-71
2023/01/08 11:40:47;;;;;;;0.70;0.40;;;14.60;99.90;;;;;;4913966;29;20183;-72
2023/01/08 11:43:25;;;;;;;0.50;0.40;;;14.60;99.90;;;;;;4914954;29;20222;-71
2023/01/08 11:46:35;;;;;;;0.80;0.50;;;14.50;99.90;;;;;;4904383;29;20182;-71
2023/01/08 11:49:33;;;;;;;0.65;0.45;;;14.50;99.90;;;;;;4902406;29;20208;-72
2023/01/08 11:52:10;;;;;;;0.95;0.47;;;14.60;99.90;;;;;;4895093;29;20190;-71
2023/01/08 11:54:58;;;;;;;1.63;0.60;;;14.60;99.90;;;;;;4901518;29;20241;-72
2023/01/08 11:58:09;;;;;;;1.50;0.90;;;14.80;99.90;;;;;;4912940;29;20174;-71
2023/01/08 12:00:43;;;;;;;0.73;0.52;;;15.00;99.90;;;;;;4909349;29;20198;-70
2023/01/08 12:03:41;;;;;;;1.30;0.70;;;15.00;99.90;;;;;;4909904;29;20201;-72
2023/01/08 12:06:26;;;;;;;1.42;0.70;;;15.00;99.90;;;;;;4912573;29;20206;-71
2023/01/08 12:09:12;;;;;;;0.70;0.50;;;15.00;99.90;;;;;;4908187;29;20279;-72
2023/01/08 12:11:52;;;;;;;1.05;0.65;;;15.00;99.90;;;;;;4898735;29;20299;-72
2023/01/08 12:14:24;;;;;;;1.05;0.60;;;15.20;99.90;;;;;;4907904;29;20206;-71
2023/01/08 12:17:00;;;;;;;1.15;0.50;;;15.30;99.90;;;;;;4899612;29;20230;-72
2023/01/08 12:20:03;;;;;;;0.60;0.50;;;15.40;99.90;;;;;;4884582;29;20207;-73
2023/01/08 12:23:01;;;;;;;0.40;0.40;;;15.50;99.90;;;;;;4908159;29;20178;-73
2023/01/08 12:25:39;;;;;;;2.03;1.40;;;15.50;99.90;;;;;;4886868;29;20332;-71
2023/01/08 12:28:42;;;;;;;1.30;0.80;;;15.60;99.90;;;;;;4917015;29;20220;-72
2023/01/08 12:31:27;;;;;;;1.23;0.82;;;15.70;99.90;;;;;;4880914;29;20443;-72
2023/01/08 12:34:13;;;;;;;0.65;0.50;;;15.80;99.90;;;;;;4914008;29;20183;-72
2023/01/08 12:36:46;;;;;;;0.50;0.40;;;15.90;99.90;;;;;;4893550;29;20222;-73
2023/01/08 12:39:21;;;;;;;1.50;0.50;;;15.90;99.90;;;;;;4893462;29;20202;-73
2023/01/08 12:41:48;;;;;;;0.68;0.50;;;15.90;99.90;;;;;;4899273;29;20171;-72
2023/01/08 12:44:22;;;;;;;0.93;0.60;;;15.80;99.90;;;;;;4904145;29;20214;-72
2023/01/08 12:46:49;;;;;;;1.48;0.75;;;15.80;99.90;;;;;;4901238;29;20185;-72
2023/01/08 12:49:24;;;;;;;1.00;0.63;;;15.70;99.90;;;;;;4898800;29;20191;-72
2023/01/08 12:52:21;;;;;;;1.80;0.90;;;15.60;99.90;;;;;;4895268;29;20274;-70
2023/01/08 12:55:04;;;;;;;1.10;0.40;;;15.50;99.90;;;;;;4898266;29;20215;-71
2023/01/08 12:57:47;;;;;;;1.08;0.45;;;15.40;99.90;;;;;;4897516;29;20187;-72
2023/01/08 13:00:45;;;;;;;0.40;0.40;;;15.30;99.90;;;;;;4898112;29;20187;-73
2023/01/08 13:03:17;;;;;;;0.95;0.60;;;15.20;99.90;;;;;;4882574;29;20220;-72
2023/01/08 13:05:43;;;;;;;1.40;0.43;;;15.00;99.90;;;;;;4912102;29;20200;-72
2023/01/08 13:08:49;;;;;;;0.30;0.30;;;14.80;99.90;;;;;;4887561;29;20187;-74